PWSweather.com
Personal Weather Stations
Station Observations
UISISLE1
Newport, Isle ofWight, ISLE OF WIGHT PO30 2JX

NewportIsle ofWight, ISLE OF WIGHT PO30 2JX

Lat: 50.72, Lon: -1.27

Elevation: 45

Station Type: Davis Vantage Pro Plus

http://www.isleofwightweather.co.uk

High Low Average
Temperature 62.7°F17.1°F 47.9°F8.8°F 58.3°F14.6°F
Dew Point 58.9°F14.9°F 44.5°F6.9°F 54.8°F12.7°F
Winds 10.0 mph SSW16.1 mph SSW Calm Calm 3.4 mph 5.5 mph
Wind Gusts 17.0 mph27.4 mph -- 6.3 mph10.1 mph
Humidity 93% 81% 88%
Pressure 30.14 in1020.70 in 29.96 in1014.60 in -
Precipitation 0.03 in0.80 in - -
Hour Temp Dew Point Humidity Winds Wind Gusts Pressure Precip Precip Rate Daily Precip Total
12:00 AM 60.1°F15.6°C 56.5°F13.6°C 88% 3.2 mph S5.1 kmh S 4.0 mph6.4 kmh 30.01 in1016.3 mb - 0.00 in0.0 mm 0.00 in0.0 mm
12:15 AM 60.0°F15.6°C 56.4°F13.6°C 88% 4.1 mph WSW6.6 kmh WSW 6.0 mph9.7 kmh 30.01 in1016.3 mb - 0.00 in0.0 mm 0.00 in0.0 mm
12:30 AM 59.9°F15.5°C 56.3°F13.5°C 88% 4.4 mph SW7.1 kmh SW 7.0 mph11.3 kmh 30.01 in1016.3 mb - 0.00 in0.0 mm 0.00 in0.0 mm
12:45 AM 59.9°F15.5°C 56.3°F13.5°C 88% 2.4 mph S3.9 kmh S 10.0 mph16.1 kmh 30.01 in1016.3 mb - 0.00 in0.0 mm 0.00 in0.0 mm
01:00 AM 59.9°F15.5°C 56.3°F13.5°C 88% 2.7 mph S4.3 kmh S 6.0 mph9.7 kmh 30.00 in1015.9 mb - 0.00 in0.0 mm 0.00 in0.0 mm
01:15 AM 59.9°F15.5°C 56.3°F13.5°C 88% 3.6 mph SW5.8 kmh SW 7.0 mph11.3 kmh 30.00 in1015.9 mb - 0.00 in0.0 mm 0.00 in0.0 mm
01:30 AM 60.0°F15.6°C 56.7°F13.7°C 89% 4.6 mph S7.4 kmh S 7.0 mph11.3 kmh 30.00 in1015.9 mb - 0.00 in0.0 mm 0.00 in0.0 mm
01:45 AM 60.0°F15.6°C 56.7°F13.7°C 89% 3.2 mph SW5.1 kmh SW 6.0 mph9.7 kmh 30.00 in1015.9 mb - 0.00 in0.0 mm 0.00 in0.0 mm
02:00 AM 60.0°F15.6°C 56.7°F13.7°C 89% 3.8 mph S6.1 kmh S 6.0 mph9.7 kmh 29.99 in1015.6 mb - 0.00 in0.0 mm 0.00 in0.0 mm
02:15 AM 59.9°F15.5°C 56.6°F13.7°C 89% 3.5 mph SW5.6 kmh SW 7.0 mph11.3 kmh 29.99 in1015.6 mb - 0.00 in0.0 mm 0.00 in0.0 mm
02:30 AM 59.7°F15.4°C 56.1°F13.4°C 88% 4.6 mph SSW7.4 kmh SSW 7.0 mph11.3 kmh 29.98 in1015.2 mb - 0.00 in0.0 mm 0.00 in0.0 mm
02:45 AM 59.5°F15.3°C 55.9°F13.3°C 88% 5.3 mph SW8.5 kmh SW 6.0 mph9.7 kmh 29.98 in1015.2 mb - 0.00 in0.0 mm 0.00 in0.0 mm
03:00 AM 59.4°F15.2°C 55.5°F13.1°C 87% 0.9 mph SSW1.4 kmh SSW 5.0 mph8.0 kmh 29.98 in1015.2 mb - 0.00 in0.0 mm 0.00 in0.0 mm
03:15 AM 59.3°F15.2°C 55.5°F13.1°C 87% 0.6 mph SW1.0 kmh SW 4.0 mph6.4 kmh 29.97 in1014.9 mb - 0.00 in0.0 mm 0.00 in0.0 mm
03:30 AM 59.4°F15.2°C 55.8°F13.2°C 88% 1.3 mph S2.1 kmh S 4.0 mph6.4 kmh 29.97 in1014.9 mb - 0.00 in0.0 mm 0.00 in0.0 mm
03:45 AM 59.2°F15.1°C 55.6°F13.1°C 88% 0.2 mph SE0.3 kmh SE 3.0 mph4.8 kmh 29.97 in1014.9 mb - 0.00 in0.0 mm 0.00 in0.0 mm
04:00 AM 59.1°F15.1°C 55.5°F13.1°C 88% 0.3 mph SW0.5 kmh SW -- 29.96 in1014.6 mb - 0.00 in0.0 mm 0.00 in0.0 mm
04:15 AM 58.9°F14.9°C 55.4°F13.0°C 88% 5.0 mph SW8.0 kmh SW 8.0 mph12.9 kmh 29.96 in1014.6 mb - 0.00 in0.0 mm 0.00 in0.0 mm
04:30 AM 58.6°F14.8°C 54.7°F12.6°C 87% 1.7 mph SW2.7 kmh SW 8.0 mph12.9 kmh 29.97 in1014.9 mb - 0.00 in0.0 mm 0.00 in0.0 mm
04:45 AM 58.2°F14.6°C 54.0°F12.2°C 86% 3.7 mph SW6.0 kmh SW 5.0 mph8.0 kmh 29.97 in1014.9 mb - 0.00 in0.0 mm 0.00 in0.0 mm
05:00 AM 58.0°F14.4°C 53.5°F11.9°C 85% 3.4 mph SW5.5 kmh SW 7.0 mph11.3 kmh 29.97 in1014.9 mb - 0.00 in0.0 mm 0.00 in0.0 mm
05:15 AM 57.7°F14.3°C 53.2°F11.8°C 85% 2.5 mph S4.0 kmh S 6.0 mph9.7 kmh 29.97 in1014.9 mb - 0.00 in0.0 mm 0.00 in0.0 mm
05:30 AM 57.3°F14.1°C 53.2°F11.8°C 86% 1.0 mph SSW1.6 kmh SSW 4.0 mph6.4 kmh 29.96 in1014.6 mb - 0.00 in0.0 mm 0.00 in0.0 mm
05:45 AM 57.1°F13.9°C 53.3°F11.8°C 87% 2.1 mph S3.4 kmh S 7.0 mph11.3 kmh 29.96 in1014.6 mb - 0.00 in0.0 mm 0.00 in0.0 mm
06:00 AM 56.9°F13.8°C 53.1°F11.7°C 87% 2.3 mph S3.7 kmh S 5.0 mph8.0 kmh 29.96 in1014.6 mb - 0.00 in0.0 mm 0.00 in0.0 mm
06:15 AM 56.9°F13.8°C 53.4°F11.9°C 88% 0.3 mph WSW0.5 kmh WSW -- 29.96 in1014.6 mb - 0.00 in0.0 mm 0.00 in0.0 mm
06:30 AM 57.1°F13.9°C 53.9°F12.2°C 89% 4.2 mph SSE6.8 kmh SSE 7.0 mph11.3 kmh 29.97 in1014.9 mb - 0.00 in0.0 mm 0.00 in0.0 mm
06:45 AM 57.4°F14.1°C 54.2°F12.3°C 89% 2.5 mph SSW4.0 kmh SSW 4.0 mph6.4 kmh 29.97 in1014.9 mb - 0.00 in0.0 mm 0.00 in0.0 mm
07:00 AM 57.6°F14.2°C 54.4°F12.4°C 89% 3.9 mph SSW6.3 kmh SSW 6.0 mph9.7 kmh 29.96 in1014.6 mb - 0.00 in0.0 mm 0.00 in0.0 mm
07:15 AM 58.0°F14.4°C 54.8°F12.7°C 89% 2.0 mph SE3.2 kmh SE 3.0 mph4.8 kmh 29.96 in1014.6 mb - 0.00 in0.0 mm 0.00 in0.0 mm
07:30 AM 58.6°F14.8°C 55.7°F13.2°C 90% 4.8 mph WNW7.7 kmh WNW 12.0 mph19.3 kmh 29.96 in1014.6 mb - 0.00 in0.0 mm 0.00 in0.0 mm
07:45 AM 59.1°F15.1°C 55.9°F13.3°C 89% 2.0 mph S3.2 kmh S 5.0 mph8.0 kmh 29.96 in1014.6 mb - 0.00 in0.0 mm 0.00 in0.0 mm
08:00 AM 59.2°F15.1°C 55.6°F13.1°C 88% 4.9 mph SSW7.9 kmh SSW 9.0 mph14.5 kmh 29.97 in1014.9 mb - 0.00 in0.0 mm 0.00 in0.0 mm
08:15 AM 59.3°F15.2°C 55.7°F13.2°C 88% 5.2 mph SSW8.4 kmh SSW 12.0 mph19.3 kmh 29.97 in1014.9 mb - 0.00 in0.0 mm 0.00 in0.0 mm
08:30 AM 59.4°F15.2°C 55.8°F13.2°C 88% 1.8 mph SW2.9 kmh SW 5.0 mph8.0 kmh 29.97 in1014.9 mb - 0.00 in0.0 mm 0.00 in0.0 mm
08:45 AM 59.6°F15.3°C 56.0°F13.3°C 88% 3.2 mph SW5.1 kmh SW 7.0 mph11.3 kmh 29.97 in1014.9 mb - 0.00 in0.0 mm 0.00 in0.0 mm
09:00 AM 59.9°F15.5°C 56.3°F13.5°C 88% 3.4 mph SW5.5 kmh SW 8.0 mph12.9 kmh 29.97 in1014.9 mb - 0.00 in0.0 mm 0.00 in0.0 mm
09:15 AM 60.5°F15.8°C 56.9°F13.8°C 88% 7.9 mph SSW12.7 kmh SSW 11.0 mph17.7 kmh 29.97 in1014.9 mb - 0.00 in0.0 mm 0.00 in0.0 mm
09:30 AM 61.1°F16.2°C 57.2°F14.0°C 87% 8.3 mph SSW13.4 kmh SSW 10.0 mph16.1 kmh 29.96 in1014.6 mb - 0.00 in0.0 mm 0.00 in0.0 mm
09:45 AM 61.7°F16.5°C 57.5°F14.2°C 86% 7.2 mph SSW11.6 kmh SSW 12.0 mph19.3 kmh 29.97 in1014.9 mb - 0.00 in0.0 mm 0.00 in0.0 mm
10:00 AM 61.9°F16.6°C 57.7°F14.3°C 86% 8.5 mph SW13.7 kmh SW 10.0 mph16.1 kmh 29.96 in1014.6 mb - 0.00 in0.0 mm 0.00 in0.0 mm
10:15 AM 62.2°F16.8°C 57.6°F14.2°C 85% 8.3 mph SW13.4 kmh SW 17.0 mph27.4 kmh 29.96 in1014.6 mb - 0.00 in0.0 mm 0.00 in0.0 mm
10:30 AM 62.5°F16.9°C 57.9°F14.4°C 85% 3.0 mph S4.8 kmh S 9.0 mph14.5 kmh 29.96 in1014.6 mb - 0.00 in0.0 mm 0.00 in0.0 mm
10:45 AM 62.7°F17.1°C 57.8°F14.3°C 84% 7.8 mph S12.6 kmh S 15.0 mph24.1 kmh 29.96 in1014.6 mb - 0.00 in0.0 mm 0.00 in0.0 mm
11:00 AM 62.5°F16.9°C 57.6°F14.2°C 84% 7.8 mph WSW12.6 kmh WSW 9.0 mph14.5 kmh 29.96 in1014.6 mb - 0.00 in0.0 mm 0.00 in0.0 mm
11:15 AM 62.3°F16.8°C 58.1°F14.5°C 86% 10.0 mph SSW16.1 kmh SSW 15.0 mph24.1 kmh 29.97 in1014.9 mb - 0.00 in0.0 mm 0.00 in0.0 mm
11:30 AM 62.1°F16.7°C 58.5°F14.7°C 88% 9.8 mph SSW15.8 kmh SSW 13.0 mph20.9 kmh 29.97 in1014.9 mb - 0.00 in0.0 mm 0.00 in0.0 mm
11:45 AM 61.5°F16.4°C 57.9°F14.4°C 88% 5.3 mph WSW8.5 kmh WSW 13.0 mph20.9 kmh 29.97 in1014.9 mb - 0.01 in0.3 mm 0.01 in0.3 mm
12:00 PM 60.8°F16.0°C 57.5°F14.2°C 89% 3.7 mph SSE6.0 kmh SSE 7.0 mph11.3 kmh 29.97 in1014.9 mb - 0.00 in0.0 mm 0.01 in0.3 mm
12:15 PM 60.5°F15.8°C 57.6°F14.2°C 90% 6.4 mph SW10.3 kmh SW 9.0 mph14.5 kmh 29.96 in1014.6 mb - 0.00 in0.0 mm 0.01 in0.3 mm
12:30 PM 60.4°F15.8°C 57.8°F14.3°C 91% 5.9 mph SW9.5 kmh SW 8.0 mph12.9 kmh 29.96 in1014.6 mb - 0.00 in0.0 mm 0.01 in0.3 mm
12:45 PM 60.3°F15.7°C 57.7°F14.3°C 91% 3.1 mph SSW5.0 kmh SSW 9.0 mph14.5 kmh 29.96 in1014.6 mb - 0.00 in0.0 mm 0.01 in0.3 mm
01:00 PM 60.4°F15.8°C 58.0°F14.4°C 92% 6.1 mph SSW9.8 kmh SSW 13.0 mph20.9 kmh 29.96 in1014.6 mb - 0.00 in0.0 mm 0.01 in0.3 mm
01:15 PM 60.4°F15.8°C 58.1°F14.5°C 92% 8.0 mph SW12.9 kmh SW 14.0 mph22.5 kmh 29.96 in1014.6 mb - 0.00 in0.0 mm 0.01 in0.3 mm
01:30 PM 60.4°F15.8°C 58.1°F14.5°C 92% 7.5 mph SW12.1 kmh SW 9.0 mph14.5 kmh 29.96 in1014.6 mb - 0.01 in0.3 mm 0.02 in0.5 mm
01:45 PM 60.3°F15.7°C 58.0°F14.4°C 92% 7.5 mph S12.1 kmh S 9.0 mph14.5 kmh 29.96 in1014.6 mb - 0.00 in0.0 mm 0.02 in0.5 mm
02:00 PM 60.4°F15.8°C 58.4°F14.7°C 93% 7.6 mph SW12.2 kmh SW 11.0 mph17.7 kmh 29.96 in1014.6 mb - 0.00 in0.0 mm 0.02 in0.5 mm
02:15 PM 60.5°F15.8°C 58.5°F14.7°C 93% 6.1 mph SW9.8 kmh SW 8.0 mph12.9 kmh 29.96 in1014.6 mb - 0.00 in0.0 mm 0.02 in0.5 mm
02:30 PM 60.7°F15.9°C 58.7°F14.8°C 93% 5.4 mph WSW8.7 kmh WSW 7.0 mph11.3 kmh 29.96 in1014.6 mb - 0.00 in0.0 mm 0.02 in0.5 mm
02:45 PM 60.7°F15.9°C 58.7°F14.8°C 93% 5.7 mph SW9.2 kmh SW 10.0 mph16.1 kmh 29.97 in1014.9 mb - 0.00 in0.0 mm 0.02 in0.5 mm
03:00 PM 60.7°F15.9°C 58.7°F14.8°C 93% 4.0 mph WSW6.4 kmh WSW 7.0 mph11.3 kmh 29.97 in1014.9 mb - 0.00 in0.0 mm 0.02 in0.5 mm
03:15 PM 60.8°F16.0°C 58.8°F14.9°C 93% 4.9 mph WSW7.9 kmh WSW 10.0 mph16.1 kmh 29.98 in1015.2 mb - 0.01 in0.3 mm 0.02 in0.5 mm
03:30 PM 60.8°F16.0°C 58.8°F14.9°C 93% 4.1 mph W6.6 kmh W 7.2 mph11.6 kmh 29.99 in1015.6 mb - 0.00 in0.0 mm 0.02 in0.5 mm
03:45 PM 60.9°F16.1°C 58.9°F14.9°C 93% 3.4 mph W5.5 kmh W 6.2 mph10.0 kmh 29.99 in1015.6 mb - 0.00 in0.0 mm 0.02 in0.5 mm
04:00 PM 60.7°F15.9°C 58.4°F14.7°C 92% 4.0 mph W6.4 kmh W 6.2 mph10.0 kmh 30.00 in1015.9 mb - 0.00 in0.0 mm 0.02 in0.5 mm
04:15 PM 60.9°F16.1°C 58.6°F14.8°C 92% 1.5 mph WNW2.4 kmh WNW 4.1 mph6.6 kmh 30.00 in1015.9 mb - 0.00 in0.0 mm 0.02 in0.5 mm
04:30 PM 60.9°F16.1°C 58.3°F14.6°C 91% 1.2 mph W1.9 kmh W 2.1 mph3.4 kmh 30.00 in1015.9 mb - 0.00 in0.0 mm 0.02 in0.5 mm
04:45 PM 60.9°F16.1°C 58.3°F14.6°C 91% 2.3 mph W3.7 kmh W 4.1 mph6.6 kmh 30.01 in1016.3 mb - 0.00 in0.0 mm 0.02 in0.5 mm
05:00 PM 60.9°F16.1°C 58.3°F14.6°C 91% 0.3 mph W0.5 kmh W 1.0 mph1.6 kmh 30.01 in1016.3 mb - 0.00 in0.0 mm 0.02 in0.5 mm
05:15 PM 60.8°F16.0°C 57.9°F14.4°C 90% 0.1 mph W0.2 kmh W -- 30.02 in1016.6 mb - 0.00 in0.0 mm 0.02 in0.5 mm
05:30 PM 60.8°F16.0°C 57.8°F14.3°C 90% 1.0 mph WNW1.6 kmh WNW 4.1 mph6.6 kmh 30.02 in1016.6 mb - 0.00 in0.0 mm 0.02 in0.5 mm
05:45 PM 60.3°F15.7°C 57.1°F13.9°C 89% 3.5 mph W5.6 kmh W 7.2 mph11.6 kmh 30.03 in1016.9 mb - 0.00 in0.0 mm 0.02 in0.5 mm
06:00 PM 59.4°F15.2°C 55.5°F13.1°C 87% 1.6 mph WNW2.6 kmh WNW 4.1 mph6.6 kmh 30.04 in1017.3 mb - 0.00 in0.0 mm 0.02 in0.5 mm
06:15 PM 58.8°F14.9°C 54.6°F12.6°C 86% 1.2 mph WNW1.9 kmh WNW 7.2 mph11.6 kmh 30.04 in1017.3 mb - 0.00 in0.0 mm 0.02 in0.5 mm
06:30 PM 58.3°F14.6°C 54.1°F12.3°C 86% 1.9 mph NW3.1 kmh NW 6.2 mph10.0 kmh 30.05 in1017.6 mb - 0.00 in0.0 mm 0.02 in0.5 mm
06:45 PM 57.7°F14.3°C 53.5°F11.9°C 86% 3.2 mph WNW5.1 kmh WNW 7.2 mph11.6 kmh 30.06 in1017.9 mb - 0.00 in0.0 mm 0.02 in0.5 mm
07:00 PM 56.8°F13.8°C 52.1°F11.2°C 84% 4.4 mph WNW7.1 kmh WNW 7.2 mph11.6 kmh 30.07 in1018.3 mb - 0.00 in0.0 mm 0.02 in0.5 mm
07:15 PM 55.9°F13.3°C 50.5°F10.3°C 82% 2.8 mph NW4.5 kmh NW 6.2 mph10.0 kmh 30.08 in1018.6 mb - 0.00 in0.0 mm 0.02 in0.5 mm
07:30 PM 55.6°F13.1°C 49.9°F9.9°C 81% 0.1 mph NW0.2 kmh NW -- 30.09 in1019.0 mb - 0.00 in0.0 mm 0.02 in0.5 mm
07:45 PM 55.4°F13.0°C 49.6°F9.8°C 81% Calm Calm 1.0 mph1.6 kmh 30.09 in1019.0 mb - 0.00 in0.0 mm 0.02 in0.5 mm
08:00 PM 55.0°F12.8°C 49.3°F9.6°C 81% 2.5 mph W4.0 kmh W 4.1 mph6.6 kmh 30.09 in1019.0 mb - 0.00 in0.0 mm 0.02 in0.5 mm
08:15 PM 54.5°F12.5°C 49.2°F9.6°C 82% 0.9 mph WSW1.4 kmh WSW 5.1 mph8.2 kmh 30.09 in1019.0 mb - 0.00 in0.0 mm 0.02 in0.5 mm
08:30 PM 54.1°F12.3°C 49.3°F9.6°C 84% 1.6 mph WSW2.6 kmh WSW 2.1 mph3.4 kmh 30.09 in1019.0 mb - 0.00 in0.0 mm 0.02 in0.5 mm
08:45 PM 53.6°F12.0°C 48.9°F9.4°C 84% 2.3 mph W3.7 kmh W 6.2 mph10.0 kmh 30.09 in1019.0 mb - 0.00 in0.0 mm 0.02 in0.5 mm
09:00 PM 53.1°F11.7°C 48.7°F9.3°C 85% 1.4 mph WSW2.3 kmh WSW 4.1 mph6.6 kmh 30.10 in1019.3 mb - 0.00 in0.0 mm 0.02 in0.5 mm
09:15 PM 52.8°F11.6°C 48.4°F9.1°C 85% 2.4 mph WSW3.9 kmh WSW 4.0 mph6.4 kmh 30.10 in1019.3 mb - 0.00 in0.0 mm 0.02 in0.5 mm
09:30 PM 52.4°F11.3°C 48.0°F8.9°C 85% 1.2 mph WNW1.9 kmh WNW 4.1 mph6.6 kmh 30.10 in1019.3 mb - 0.00 in0.0 mm 0.02 in0.5 mm
09:45 PM 52.1°F11.2°C 47.7°F8.7°C 85% 1.0 mph WSW1.6 kmh WSW 1.0 mph1.6 kmh 30.10 in1019.3 mb - 0.00 in0.0 mm 0.02 in0.5 mm
10:00 PM 51.8°F11.0°C 47.7°F8.7°C 86% 1.5 mph WSW2.4 kmh WSW 3.0 mph4.8 kmh 30.11 in1019.6 mb - 0.00 in0.0 mm 0.02 in0.5 mm
10:15 PM 51.3°F10.7°C 47.3°F8.5°C 86% Calm Calm -- 30.11 in1019.6 mb - 0.00 in0.0 mm 0.02 in0.5 mm
10:30 PM 50.8°F10.4°C 46.8°F8.2°C 86% Calm Calm -- 30.11 in1019.6 mb - 0.00 in0.0 mm 0.02 in0.5 mm
10:45 PM 50.2°F10.1°C 46.1°F7.8°C 86% Calm Calm -- 30.12 in1020.0 mb - 0.00 in0.0 mm 0.02 in0.5 mm
11:00 PM 49.5°F9.7°C 45.8°F7.7°C 87% 1.0 mph SW1.6 kmh SW 4.0 mph6.4 kmh 30.12 in1020.0 mb - 0.00 in0.0 mm 0.03 in0.8 mm
11:15 PM 49.0°F9.4°C 45.6°F7.6°C 88% 0.2 mph SSW0.3 kmh SSW -- 30.12 in1020.0 mb - 0.00 in0.0 mm 0.03 in0.8 mm
11:30 PM 48.4°F9.1°C 45.0°F7.2°C 88% Calm Calm -- 30.13 in1020.3 mb - 0.00 in0.0 mm 0.03 in0.8 mm
11:45 PM 47.9°F8.8°C 44.5°F6.9°C 88% Calm Calm -- 30.14 in1020.7 mb - 0.00 in0.0 mm 0.03 in0.8 mm